Terminal Aerodrome Forecast
Issued by NWS

Home | Current Version | Previous Version | Text Only | Print | Product List | Glossary On
Versions: 1 2 3 4 5 6 7 8 9 10 11 12 13 14 15 16
000
FTUS44 KMAF 190000 AAA
TAFFST
TAF AMD
KFST 190019Z 1900/1924 36010KT P6SM -SHRA BKN040 OVC060
     FM190400 13012KT P6SM OVC030
      TEMPO 1904/1908 4SM TSRA BR BKN015CB
     FM190800 14010KT P6SM OVC020
      TEMPO 1908/1912 4SM TSRA BR OVC010CB
     FM191200 14009KT P6SM OVC020
      TEMPO 1912/1916 4SM TSRA BR OVC010CB
     FM191600 14010KT P6SM OVC030
      TEMPO 1916/1920 5SM TSRA OVC020CB=

USA.gov is the U.S. government's official web portal to all federal, state and local government web resources and services.